createdAt,value
2019-05-01T00:01:32.742Z,45.63
2019-05-01T00:04:25.209Z,44.47
2019-05-01T00:06:56.335Z,46.77
2019-05-01T00:09:23.950Z,42.07
2019-05-01T00:11:51.300Z,44.50
2019-05-01T00:14:25.763Z,46.23
2019-05-01T00:16:53.138Z,41.77
2019-05-01T00:19:20.478Z,50.10
2019-05-01T00:21:47.964Z,48.77
2019-05-01T00:24:15.298Z,52.40
2019-05-01T00:26:42.605Z,60.70
2019-05-01T00:29:09.926Z,61.90
2019-05-01T00:31:37.378Z,60.13
2019-05-01T00:34:04.714Z,50.77
2019-05-01T00:36:31.996Z,44.03
2019-05-01T00:38:59.419Z,40.73
2019-05-01T00:41:26.661Z,43.07
2019-05-01T00:43:54.033Z,40.03
2019-05-01T00:46:21.327Z,41.37
2019-05-01T00:48:48.629Z,43.27
2019-05-01T00:51:16.000Z,37.63
2019-05-01T00:53:43.456Z,49.87
2019-05-01T00:56:23.292Z,42.70
2019-05-01T00:58:59.416Z,41.23
2019-05-01T01:01:47.523Z,42.50
2019-05-01T01:04:16.647Z,38.17
2019-05-01T01:06:44.073Z,36.87
2019-05-01T01:09:11.483Z,46.03
2019-05-01T01:11:38.758Z,42.93
2019-05-01T01:14:06.040Z,44.90
2019-05-01T01:16:33.425Z,45.60
2019-05-01T01:19:00.768Z,45.17
2019-05-01T01:21:27.968Z,45.80
2019-05-01T01:23:55.323Z,48.70
2019-05-01T01:26:22.708Z,40.90
2019-05-01T01:28:49.884Z,45.73
2019-05-01T01:31:17.222Z,43.73
2019-05-01T01:33:45.211Z,48.57
2019-05-01T01:36:12.758Z,44.27
2019-05-01T01:38:42.315Z,45.40
2019-05-01T01:41:10.253Z,47.40
2019-05-01T01:43:51.484Z,45.23
2019-05-01T01:46:20.086Z,42.17
2019-05-01T01:48:47.464Z,39.00
2019-05-01T01:51:14.829Z,42.67
2019-05-01T01:53:42.208Z,44.40
2019-05-01T01:56:09.515Z,41.40
2019-05-01T01:58:36.881Z,48.60
2019-05-01T02:01:22.138Z,42.67
2019-05-01T02:03:54.256Z,42.63
2019-05-01T02:06:21.579Z,39.80
2019-05-01T02:08:56.219Z,52.03
2019-05-01T02:11:18.213Z,46.23
2019-05-01T02:13:45.493Z,52.63
2019-05-01T02:16:12.809Z,50.77
2019-05-01T02:18:40.070Z,52.27
2019-05-01T02:21:07.420Z,56.17
2019-05-01T02:23:34.704Z,56.43
2019-05-01T02:26:02.161Z,55.10
2019-05-01T02:28:39.826Z,57.57
2019-05-01T02:31:27.489Z,48.77
2019-05-01T02:33:46.245Z,43.83
2019-05-01T02:36:13.744Z,54.23
2019-05-01T02:38:41.073Z,58.90
2019-05-01T02:41:08.590Z,56.47
2019-05-01T02:43:35.889Z,48.23
2019-05-01T02:46:03.273Z,46.63
2019-05-01T02:48:31.500Z,42.70
2019-05-01T02:50:59.956Z,46.50
2019-05-01T02:53:27.231Z,48.80
2019-05-01T02:56:17.375Z,38.50
2019-05-01T02:58:45.097Z,41.13
2019-05-01T03:01:14.305Z,45.00
2019-05-01T03:03:41.509Z,45.27
2019-05-01T03:06:08.958Z,44.80
2019-05-01T03:08:36.331Z,52.33
2019-05-01T03:11:03.724Z,48.77
2019-05-01T03:13:31.131Z,52.47
2019-05-01T03:15:58.382Z,45.80
2019-05-01T03:18:31.476Z,54.03
2019-05-01T03:21:12.664Z,54.20
2019-05-01T03:23:43.644Z,47.93
2019-05-01T03:26:11.024Z,56.60
2019-05-01T03:28:38.276Z,61.37
2019-05-01T03:31:05.606Z,63.70
2019-05-01T03:33:33.026Z,59.73
2019-05-01T03:36:00.284Z,65.03
2019-05-01T03:38:27.775Z,78.73
2019-05-01T03:40:55.064Z,55.90
2019-05-01T03:43:22.318Z,55.97
2019-05-01T03:45:49.592Z,54.80
2019-05-01T03:48:16.942Z,62.00
2019-05-01T03:50:46.862Z,63.20
2019-05-01T03:53:13.660Z,65.80
2019-05-01T03:55:41.874Z,71.00
2019-05-01T03:58:09.313Z,54.10
2019-05-01T04:01:02.257Z,58.17
2019-05-01T04:03:33.716Z,58.87
2019-05-01T04:06:03.081Z,57.00
2019-05-01T04:08:30.729Z,56.77
2019-05-01T04:10:59.908Z,51.50
2019-05-01T04:13:27.769Z,47.87
2019-05-01T04:15:56.818Z,57.30
2019-05-01T04:18:24.175Z,63.50
2019-05-01T04:20:51.506Z,56.93
2019-05-01T04:23:19.182Z,56.53
2019-05-01T04:25:46.647Z,55.50
2019-05-01T04:28:31.914Z,50.03
2019-05-01T04:31:09.458Z,57.93
2019-05-01T04:33:38.007Z,51.43
2019-05-01T04:36:10.131Z,52.73
2019-05-01T04:38:37.459Z,46.63
2019-05-01T04:41:04.817Z,43.03
2019-05-01T04:43:32.348Z,44.87
2019-05-01T04:45:59.786Z,43.73
2019-05-01T04:48:27.054Z,49.57
2019-05-01T04:50:54.548Z,52.47
2019-05-01T04:53:22.041Z,49.33
2019-05-01T04:55:49.254Z,48.27
2019-05-01T04:58:16.579Z,44.57
2019-05-01T05:00:44.062Z,47.90
2019-05-01T05:03:15.787Z,44.90
2019-05-01T05:05:43.341Z,50.23
2019-05-01T05:08:12.396Z,51.57
2019-05-01T05:10:40.374Z,47.07
2019-05-01T05:13:30.063Z,46.30
2019-05-01T05:16:13.412Z,45.37
2019-05-01T05:18:50.503Z,43.67
2019-05-01T05:21:17.877Z,41.30
2019-05-01T05:23:45.185Z,47.80
2019-05-01T05:26:12.477Z,45.77
2019-05-01T05:28:39.810Z,52.67
2019-05-01T05:31:07.197Z,50.70
2019-05-01T05:33:34.611Z,67.27
2019-05-01T05:36:01.894Z,53.17
2019-05-01T05:38:48.764Z,58.80
2019-05-01T05:41:16.922Z,52.30
2019-05-01T05:43:44.332Z,50.57
2019-05-01T05:46:12.094Z,47.40
2019-05-01T05:48:39.720Z,48.43
2019-05-01T05:51:28.740Z,43.13
2019-05-01T05:53:59.791Z,40.53
2019-05-01T05:56:32.056Z,34.23
2019-05-01T05:59:03.435Z,35.70
2019-05-01T06:01:48.631Z,33.67
2019-05-01T06:04:30.399Z,29.10
2019-05-01T06:07:19.986Z,29.87
2019-05-01T06:09:57.387Z,25.20
2019-05-01T06:12:41.765Z,29.07
2019-05-01T06:15:18.019Z,29.90
2019-05-01T06:17:50.002Z,27.70
2019-05-01T06:20:38.536Z,32.47
2019-05-01T06:23:20.747Z,32.27
2019-05-01T06:25:46.812Z,36.40
2019-05-01T06:28:14.107Z,39.00
2019-05-01T06:30:41.933Z,40.80
2019-05-01T06:33:11.285Z,47.90
2019-05-01T06:35:39.469Z,42.13
2019-05-01T06:38:11.050Z,43.40
2019-05-01T06:40:42.554Z,43.57
2019-05-01T06:43:20.208Z,42.60
2019-05-01T06:45:52.588Z,37.97
2019-05-01T06:48:21.422Z,37.27
2019-05-01T06:50:55.219Z,41.33
2019-05-01T06:53:22.418Z,41.37
2019-05-01T06:55:51.498Z,40.17
2019-05-01T06:58:20.419Z,39.17
2019-05-01T07:00:48.064Z,37.27
2019-05-01T07:03:15.470Z,37.33
2019-05-01T07:05:44.613Z,35.80
2019-05-01T07:08:24.055Z,37.37
2019-05-01T07:10:43.907Z,38.97
2019-05-01T07:13:10.408Z,33.60
2019-05-01T07:15:37.715Z,32.47
2019-05-01T07:18:05.031Z,42.73
2019-05-01T07:20:53.246Z,47.00
2019-05-01T07:23:20.938Z,36.90
2019-05-01T07:25:48.303Z,38.40
2019-05-01T07:28:15.665Z,41.67
2019-05-01T07:30:49.809Z,36.87
2019-05-01T07:33:17.899Z,38.10
2019-05-01T07:35:45.298Z,39.13
2019-05-01T07:38:12.593Z,37.37
2019-05-01T07:40:39.857Z,38.50
2019-05-01T07:43:25.824Z,40.63
2019-05-01T07:46:04.761Z,36.70
2019-05-01T07:48:35.972Z,43.50
2019-05-01T07:51:06.948Z,41.90
2019-05-01T07:53:34.133Z,42.67
2019-05-01T07:56:01.463Z,38.20
2019-05-01T07:58:28.710Z,40.77
2019-05-01T08:01:02.330Z,37.30
2019-05-01T08:03:29.650Z,38.50
2019-05-01T08:05:56.973Z,39.13
2019-05-01T08:08:24.351Z,38.03
2019-05-01T08:10:51.675Z,37.63
2019-05-01T08:13:18.932Z,39.60
2019-05-01T08:15:46.212Z,36.20
2019-05-01T08:18:27.517Z,39.90
2019-05-01T08:21:04.337Z,34.40
2019-05-01T08:23:31.709Z,33.80
2019-05-01T08:25:58.988Z,35.37
2019-05-01T08:28:55.687Z,34.47
2019-05-01T08:31:32.235Z,32.57
2019-05-01T08:34:02.871Z,30.70
2019-05-01T08:36:30.178Z,38.50
2019-05-01T08:38:57.461Z,29.27
2019-05-01T08:41:27.107Z,26.33
2019-05-01T08:43:55.780Z,22.70
2019-05-01T08:46:46.890Z,24.20
2019-05-01T08:49:24.702Z,28.00
2019-05-01T08:51:52.113Z,21.97
2019-05-01T08:54:19.503Z,19.40
2019-05-01T08:56:47.019Z,25.53
2019-05-01T08:59:14.456Z,24.47
2019-05-01T09:01:45.815Z,27.60
2019-05-01T09:04:13.336Z,23.80
2019-05-01T09:06:43.913Z,21.00
2019-05-01T09:09:10.180Z,22.83
2019-05-01T09:11:37.528Z,22.00
2019-05-01T09:14:04.888Z,20.23
2019-05-01T09:16:32.196Z,23.90
2019-05-01T09:18:59.488Z,22.27
2019-05-01T09:21:26.772Z,22.37
2019-05-01T09:23:54.147Z,23.57
2019-05-01T09:26:50.289Z,20.00
2019-05-01T09:29:23.436Z,18.70
2019-05-01T09:31:52.366Z,21.70
2019-05-01T09:34:21.100Z,20.00
2019-05-01T09:36:48.531Z,19.47
2019-05-01T09:39:16.012Z,18.90
2019-05-01T09:41:47.298Z,19.80
2019-05-01T09:44:12.448Z,21.30
2019-05-01T09:46:39.807Z,20.30
2019-05-01T09:49:07.460Z,17.50
2019-05-01T09:51:55.277Z,22.07
2019-05-01T09:54:31.590Z,18.70
2019-05-01T09:56:58.901Z,18.77
2019-05-01T09:59:26.244Z,19.57
2019-05-01T10:01:53.558Z,15.17
2019-05-01T10:04:20.892Z,19.63
2019-05-01T10:06:52.206Z,19.57
2019-05-01T10:09:18.081Z,20.30
2019-05-01T10:11:45.653Z,19.40
2019-05-01T10:14:13.022Z,18.90
2019-05-01T10:16:40.292Z,17.60
2019-05-01T10:19:07.600Z,20.87
2019-05-01T10:21:34.924Z,18.60
2019-05-01T10:24:02.255Z,18.27
2019-05-01T10:26:31.349Z,20.67
2019-05-01T10:29:16.620Z,17.40
2019-05-01T10:32:17.034Z,20.53
2019-05-01T10:35:19.223Z,18.60
2019-05-01T10:37:44.852Z,18.83
2019-05-01T10:40:12.208Z,22.40
2019-05-01T10:42:41.041Z,17.60
2019-05-01T10:45:09.188Z,17.67
2019-05-01T10:47:36.530Z,18.80
2019-05-01T10:50:03.992Z,19.63
2019-05-01T10:52:31.265Z,19.27
2019-05-01T10:54:58.564Z,18.80
2019-05-01T10:57:26.012Z,17.60
2019-05-01T10:59:53.234Z,17.90
2019-05-01T11:02:20.621Z,20.67
2019-05-01T11:04:48.028Z,15.93
2019-05-01T11:07:15.470Z,19.07
2019-05-01T11:09:43.121Z,16.93
2019-05-01T11:12:10.512Z,16.33
2019-05-01T11:14:37.846Z,17.33
2019-05-01T11:17:05.214Z,22.93
2019-05-01T11:19:32.621Z,19.33
2019-05-01T11:21:59.909Z,20.50
2019-05-01T11:24:27.086Z,18.80
2019-05-01T11:26:54.407Z,19.23
2019-05-01T11:29:21.663Z,19.70
2019-05-01T11:32:08.966Z,20.47
2019-05-01T11:34:52.577Z,23.20
2019-05-01T11:37:33.614Z,18.33
2019-05-01T11:40:08.160Z,17.63
2019-05-01T11:42:35.512Z,20.53
2019-05-01T11:45:03.349Z,17.70
2019-05-01T11:47:30.762Z,19.70
2019-05-01T11:49:58.156Z,17.10
2019-05-01T11:52:25.466Z,18.30
2019-05-01T11:54:52.761Z,17.73
2019-05-01T11:57:20.131Z,18.30
2019-05-01T11:59:47.315Z,18.10
2019-05-01T12:02:14.628Z,16.73
2019-05-01T12:04:42.055Z,17.50
2019-05-01T12:07:09.474Z,19.43
2019-05-01T12:09:36.840Z,16.13
2019-05-01T12:12:08.151Z,17.17
2019-05-01T12:14:35.535Z,17.37
2019-05-01T12:17:15.275Z,17.00
2019-05-01T12:19:42.672Z,18.50
2019-05-01T12:22:10.059Z,15.80
2019-05-01T12:24:37.521Z,15.67
2019-05-01T12:27:04.916Z,18.50
2019-05-01T12:29:32.179Z,19.53
2019-05-01T12:31:59.503Z,16.97
2019-05-01T12:34:26.729Z,17.30
2019-05-01T12:37:13.696Z,17.17
2019-05-01T12:39:41.017Z,21.20
2019-05-01T12:42:08.439Z,17.37
2019-05-01T12:44:35.748Z,16.90
2019-05-01T12:47:11.265Z,19.63
2019-05-01T12:49:38.683Z,17.53
2019-05-01T12:52:10.798Z,16.90
2019-05-01T12:55:01.050Z,15.77
2019-05-01T12:57:28.785Z,12.70
2019-05-01T13:00:08.094Z,15.97
2019-05-01T13:02:25.399Z,15.23
2019-05-01T13:04:52.781Z,16.87
2019-05-01T13:07:20.117Z,15.40
2019-05-01T13:09:47.531Z,14.20
2019-05-01T13:12:14.963Z,14.50
2019-05-01T13:14:42.211Z,15.70
2019-05-01T13:17:09.510Z,20.77
2019-05-01T13:19:36.774Z,14.60
2019-05-01T13:22:05.398Z,16.60
2019-05-01T13:24:34.786Z,14.47
2019-05-01T13:27:12.342Z,13.80
2019-05-01T13:30:02.215Z,13.43
2019-05-01T13:32:46.236Z,14.83
2019-05-01T13:35:13.692Z,16.07
2019-05-01T13:37:41.037Z,16.93
2019-05-01T13:40:08.492Z,14.20
2019-05-01T13:42:35.839Z,16.13
2019-05-01T13:45:03.338Z,14.23
2019-05-01T13:47:30.636Z,11.97
2019-05-01T13:49:58.079Z,13.27
2019-05-01T13:52:25.286Z,17.33
2019-05-01T13:54:52.554Z,14.20
2019-05-01T13:57:20.215Z,12.77
2019-05-01T13:59:47.608Z,12.90
2019-05-01T14:02:15.498Z,12.53
2019-05-01T14:04:42.787Z,13.33
2019-05-01T14:07:16.650Z,15.20
2019-05-01T14:09:39.697Z,17.30
2019-05-01T14:12:07.023Z,13.13
2019-05-01T14:14:34.428Z,11.13
2019-05-01T14:17:01.816Z,14.03
2019-05-01T14:19:29.309Z,14.53
2019-05-01T14:22:14.249Z,13.97
2019-05-01T14:24:44.532Z,15.90
2019-05-01T14:27:11.876Z,12.00
2019-05-01T14:29:39.255Z,16.47
2019-05-01T14:32:06.560Z,11.70
2019-05-01T14:34:33.928Z,11.73
2019-05-01T14:37:01.420Z,11.73
2019-05-01T14:39:28.850Z,11.83
2019-05-01T14:41:56.107Z,12.13
2019-05-01T14:44:35.727Z,12.47
2019-05-01T14:46:52.530Z,9.60
2019-05-01T14:49:20.113Z,10.40
2019-05-01T14:51:47.375Z,10.53
2019-05-01T14:54:14.760Z,10.33
2019-05-01T14:56:43.417Z,9.73
2019-05-01T14:59:10.954Z,10.37
2019-05-01T15:01:38.236Z,9.60
2019-05-01T15:04:05.586Z,10.80
2019-05-01T15:06:32.949Z,10.27
2019-05-01T15:09:00.239Z,11.83
2019-05-01T15:11:27.504Z,12.73
2019-05-01T15:14:04.450Z,12.53
2019-05-01T15:16:42.068Z,10.03
2019-05-01T15:19:18.111Z,10.03
2019-05-01T15:21:45.464Z,11.20
2019-05-01T15:24:12.804Z,12.60
2019-05-01T15:26:40.208Z,10.20
2019-05-01T15:29:07.497Z,10.90
2019-05-01T15:31:34.814Z,11.00
2019-05-01T15:34:02.218Z,10.70
2019-05-01T15:36:29.516Z,10.47
2019-05-01T15:38:57.553Z,10.50
2019-05-01T15:41:56.225Z,10.00
2019-05-01T15:44:34.339Z,9.03
2019-05-01T15:47:01.722Z,11.30
2019-05-01T15:49:29.068Z,9.80
2019-05-01T15:51:56.381Z,12.30
2019-05-01T15:54:23.756Z,9.43
2019-05-01T15:56:51.133Z,10.30
2019-05-01T15:59:18.406Z,9.80
2019-05-01T16:01:45.728Z,10.33
2019-05-01T16:04:13.051Z,9.97
2019-05-01T16:06:40.320Z,11.57
2019-05-01T16:09:07.677Z,8.60
2019-05-01T16:12:12.665Z,8.63
2019-05-01T16:14:41.169Z,13.10
2019-05-01T16:17:08.548Z,9.37
2019-05-01T16:19:35.911Z,10.33
2019-05-01T16:22:03.374Z,10.20
2019-05-01T16:24:30.711Z,8.57
2019-05-01T16:26:58.099Z,7.87
2019-05-01T16:29:25.426Z,8.53
2019-05-01T16:31:52.760Z,8.27
2019-05-01T16:34:20.515Z,12.60
2019-05-01T16:36:47.871Z,8.00
2019-05-01T16:39:34.671Z,7.90
2019-05-01T16:42:02.023Z,9.57
2019-05-01T16:44:29.357Z,8.80
2019-05-01T16:46:56.667Z,13.53
2019-05-01T16:49:24.126Z,8.13
2019-05-01T16:51:51.424Z,12.90
2019-05-01T16:54:18.709Z,9.73
2019-05-01T16:56:46.092Z,11.50
2019-05-01T16:59:13.373Z,10.77
2019-05-01T17:01:50.461Z,9.43
2019-05-01T17:04:43.378Z,8.70
2019-05-01T17:07:33.317Z,10.63
2019-05-01T17:10:17.118Z,11.97
2019-05-01T17:12:46.301Z,9.47
2019-05-01T17:15:13.954Z,13.10
2019-05-01T17:17:41.310Z,11.87
2019-05-01T17:20:08.643Z,14.50
2019-05-01T17:22:36.000Z,10.90
2019-05-01T17:25:03.561Z,9.20
2019-05-01T17:27:30.803Z,12.90
2019-05-01T17:29:58.182Z,10.17
2019-05-01T17:32:25.441Z,11.53
2019-05-01T17:34:52.823Z,9.13
2019-05-01T17:37:20.112Z,9.50
2019-05-01T17:39:47.401Z,12.27
2019-05-01T17:42:14.714Z,10.20
2019-05-01T17:44:42.065Z,9.33
2019-05-01T17:47:09.513Z,11.40
2019-05-01T17:49:41.009Z,9.17
2019-05-01T17:52:06.036Z,10.80
2019-05-01T17:54:33.341Z,8.03
2019-05-01T17:57:00.677Z,11.93
2019-05-01T17:59:27.998Z,9.97
2019-05-01T18:02:13.822Z,9.00
2019-05-01T18:04:58.969Z,9.07
2019-05-01T18:07:28.880Z,9.50
2019-05-01T18:09:56.985Z,9.07
2019-05-01T18:12:28.432Z,12.93
2019-05-01T18:14:53.880Z,13.00
2019-05-01T18:17:21.156Z,14.60
2019-05-01T18:19:48.390Z,11.30
2019-05-01T18:22:38.960Z,11.93
2019-05-01T18:25:44.153Z,11.83
2019-05-01T18:28:45.858Z,12.93
2019-05-01T18:31:18.577Z,13.53
2019-05-01T18:33:46.289Z,26.93
2019-05-01T18:36:13.871Z,25.03
2019-05-01T18:38:50.238Z,27.77
2019-05-01T18:41:27.862Z,30.87
2019-05-01T18:43:55.148Z,33.67
2019-05-01T18:46:22.523Z,45.07
2019-05-01T18:48:49.949Z,41.97
2019-05-01T18:51:17.247Z,51.20
2019-05-01T18:53:44.652Z,46.30
2019-05-01T18:56:12.139Z,50.10
2019-05-01T18:58:39.616Z,54.20
2019-05-01T19:01:09.294Z,58.10
2019-05-01T19:03:37.066Z,60.87
2019-05-01T19:06:05.469Z,59.30
2019-05-01T19:08:32.767Z,55.67
2019-05-01T19:11:11.841Z,53.00
2019-05-01T19:13:29.415Z,59.30
2019-05-01T19:15:56.814Z,56.77
2019-05-01T19:18:24.223Z,59.27
2019-05-01T19:20:59.422Z,61.73
2019-05-01T19:23:22.265Z,58.47
2019-05-01T19:25:50.275Z,64.50
2019-05-01T19:28:18.132Z,51.83
2019-05-01T19:30:45.540Z,49.60
2019-05-01T19:33:12.990Z,56.80
2019-05-01T19:35:40.373Z,50.40
2019-05-01T19:38:08.485Z,50.80
2019-05-01T19:40:35.808Z,52.93
2019-05-01T19:43:03.186Z,50.60
2019-05-01T19:45:30.473Z,52.50
2019-05-01T19:47:57.838Z,48.90
2019-05-01T19:50:25.079Z,48.50
2019-05-01T19:52:55.993Z,48.03
2019-05-01T19:55:23.395Z,44.73
2019-05-01T19:57:50.700Z,49.37
2019-05-01T20:00:40.789Z,45.73
2019-05-01T20:03:08.209Z,45.90
2019-05-01T20:05:35.590Z,45.57
2019-05-01T20:08:03.006Z,49.60
2019-05-01T20:10:30.331Z,50.27
2019-05-01T20:12:57.715Z,48.77
2019-05-01T20:15:26.589Z,41.87
2019-05-01T20:17:53.973Z,43.93
2019-05-01T20:20:21.363Z,50.03
2019-05-01T20:22:53.207Z,41.50
2019-05-01T20:25:19.378Z,56.33
2019-05-01T20:27:50.528Z,44.43
2019-05-01T20:30:16.614Z,43.00
2019-05-01T20:32:44.034Z,40.50
2019-05-01T20:35:11.388Z,43.43
2019-05-01T20:37:38.717Z,39.93
2019-05-01T20:40:11.256Z,43.83
2019-05-01T20:42:35.278Z,40.23
2019-05-01T20:45:05.393Z,48.13
2019-05-01T20:47:35.280Z,38.87
2019-05-01T20:50:01.198Z,43.60
2019-05-01T20:52:28.576Z,45.47
2019-05-01T20:54:55.830Z,47.00
2019-05-01T20:57:27.864Z,45.73
2019-05-01T20:59:55.082Z,46.10
2019-05-01T21:02:22.476Z,41.37
2019-05-01T21:05:09.368Z,39.90
2019-05-01T21:07:41.940Z,45.23
2019-05-01T21:10:09.347Z,40.90
2019-05-01T21:12:36.739Z,43.27
2019-05-01T21:15:04.248Z,44.30
2019-05-01T21:17:31.613Z,44.60
2019-05-01T21:19:58.895Z,39.87
2019-05-01T21:22:26.087Z,41.27
2019-05-01T21:24:53.394Z,43.53
2019-05-01T21:27:20.771Z,44.70
2019-05-01T21:29:47.983Z,48.07
2019-05-01T21:32:18.396Z,59.90
2019-05-01T21:34:44.595Z,51.00
2019-05-01T21:37:12.015Z,50.77
2019-05-01T21:39:39.428Z,50.53
2019-05-01T21:42:11.548Z,66.03
2019-05-01T21:44:35.955Z,61.63
2019-05-01T21:47:03.945Z,60.03
2019-05-01T21:49:33.153Z,61.07
2019-05-01T21:52:00.303Z,59.30
2019-05-01T21:54:27.619Z,65.30
2019-05-01T21:56:54.996Z,59.50
2019-05-01T21:59:22.274Z,67.30
2019-05-01T22:01:49.570Z,66.00
2019-05-01T22:04:16.865Z,69.30
2019-05-01T22:06:46.756Z,63.10
2019-05-01T22:09:17.264Z,62.97
2019-05-01T22:11:44.731Z,59.77
2019-05-01T22:14:16.567Z,67.90
2019-05-01T22:16:43.900Z,60.47
2019-05-01T22:19:16.460Z,68.50
2019-05-01T22:22:00.145Z,67.77
2019-05-01T22:24:58.983Z,70.70
2019-05-01T22:27:33.112Z,74.30
2019-05-01T22:30:12.626Z,81.87
2019-05-01T22:32:43.611Z,72.10
2019-05-01T22:35:19.146Z,71.97
2019-05-01T22:37:46.626Z,78.97
2019-05-01T22:40:15.749Z,76.60
2019-05-01T22:42:43.097Z,69.93
2019-05-01T22:45:18.342Z,67.43
2019-05-01T22:47:46.109Z,70.27
2019-05-01T22:50:14.863Z,87.63
2019-05-01T22:52:42.195Z,75.27
2019-05-01T22:55:09.543Z,71.37
2019-05-01T22:57:36.980Z,68.40
2019-05-01T23:00:05.732Z,66.03
2019-05-01T23:02:38.977Z,80.07
2019-05-01T23:05:06.651Z,76.77
2019-05-01T23:07:33.956Z,77.17
2019-05-01T23:10:03.315Z,76.23
2019-05-01T23:12:30.603Z,77.73
2019-05-01T23:14:58.004Z,80.50
2019-05-01T23:17:34.904Z,75.07
2019-05-01T23:20:03.958Z,81.70
2019-05-01T23:22:30.593Z,76.23
2019-05-01T23:24:57.869Z,70.20
2019-05-01T23:27:29.391Z,79.53
2019-05-01T23:29:54.335Z,84.40
2019-05-01T23:32:21.652Z,75.77
2019-05-01T23:34:49.019Z,86.27
2019-05-01T23:37:16.328Z,76.73
2019-05-01T23:39:43.643Z,79.93
2019-05-01T23:42:10.978Z,78.10
2019-05-01T23:44:42.841Z,76.77
2019-05-01T23:47:07.505Z,73.37
2019-05-01T23:49:34.820Z,69.13
2019-05-01T23:52:03.320Z,63.60
2019-05-01T23:54:31.342Z,60.43
2019-05-01T23:56:58.763Z,70.03
2019-05-01T23:59:26.188Z,59.63
